createdAt,value
2019-03-01T00:00:02.738Z,1008.91
2019-03-01T00:01:02.731Z,1008.88
2019-03-01T00:02:02.797Z,1008.83
2019-03-01T00:03:03.086Z,1008.84
2019-03-01T00:04:02.910Z,1008.87
2019-03-01T00:05:02.845Z,1008.80
2019-03-01T00:06:02.932Z,1008.85
2019-03-01T00:07:02.903Z,1008.84
2019-03-01T00:08:02.992Z,1008.83
2019-03-01T00:09:03.021Z,1008.85
2019-03-01T00:10:03.301Z,1008.79
2019-03-01T00:11:03.090Z,1008.82
2019-03-01T00:12:03.067Z,1008.76
2019-03-01T00:13:03.167Z,1008.82
2019-03-01T00:14:03.134Z,1008.82
2019-03-01T00:15:03.163Z,1008.83
2019-03-01T00:17:03.273Z,1008.79
2019-03-01T00:18:03.609Z,1008.79
2019-03-01T00:19:03.287Z,1008.78
2019-03-01T00:20:03.321Z,1008.75
2019-03-01T00:21:03.400Z,1008.72
2019-03-01T00:22:03.383Z,1008.74
2019-03-01T00:23:03.417Z,1008.70
2019-03-01T00:24:03.446Z,1008.70
2019-03-01T00:25:03.530Z,1008.72
2019-03-01T00:26:03.554Z,1008.74
2019-03-01T00:27:03.542Z,1008.78
2019-03-01T00:28:03.929Z,1008.72
2019-03-01T00:29:03.654Z,1008.73
2019-03-01T00:30:03.682Z,1008.72
2019-03-01T00:31:03.724Z,1008.70
2019-03-01T00:32:03.753Z,1008.71
2019-03-01T00:33:03.723Z,1008.69
2019-03-01T00:34:03.811Z,1008.68
2019-03-01T00:35:04.142Z,1008.71
2019-03-01T00:37:03.904Z,1008.64
2019-03-01T00:38:03.903Z,1008.67
2019-03-01T00:39:03.913Z,1008.65
2019-03-01T00:40:04.005Z,1008.62
2019-03-01T00:41:04.031Z,1008.57
2019-03-01T00:42:04.032Z,1008.61
2019-03-01T00:43:04.053Z,1008.60
2019-03-01T00:44:04.131Z,1008.62
2019-03-01T00:45:04.106Z,1008.64
2019-03-01T00:46:04.182Z,1008.55
2019-03-01T00:47:04.319Z,1008.57
2019-03-01T00:48:04.494Z,1008.57
2019-03-01T00:49:04.384Z,1008.53
2019-03-01T00:50:04.409Z,1008.58
2019-03-01T00:51:04.341Z,1008.56
2019-03-01T00:52:04.370Z,1008.54
2019-03-01T00:53:04.365Z,1008.55
2019-03-01T00:54:04.435Z,1008.48
2019-03-01T00:55:04.720Z,1008.48
2019-03-01T00:56:04.504Z,1008.47
2019-03-01T00:57:04.484Z,1008.46
2019-03-01T00:58:04.567Z,1008.44
2019-03-01T00:59:04.597Z,1008.48
2019-03-01T01:01:04.655Z,1008.43
2019-03-01T01:02:04.999Z,1008.37
2019-03-01T01:03:04.666Z,1008.40
2019-03-01T01:04:04.779Z,1008.37
2019-03-01T01:05:04.794Z,1008.37
2019-03-01T01:07:04.848Z,1008.33
2019-03-01T01:08:04.882Z,1008.33
2019-03-01T01:09:05.153Z,1008.31
2019-03-01T01:10:04.937Z,1008.31
2019-03-01T01:11:04.923Z,1008.31
2019-03-01T01:12:04.999Z,1008.28
2019-03-01T01:13:05.033Z,1008.25
2019-03-01T01:14:05.169Z,1008.30
2019-03-01T01:15:05.096Z,1008.26
2019-03-01T01:16:05.530Z,1008.25
2019-03-01T01:17:05.162Z,1008.22
2019-03-01T01:18:05.135Z,1008.27
2019-03-01T01:19:05.169Z,1008.22
2019-03-01T01:20:05.254Z,1008.22
2019-03-01T01:21:05.281Z,1008.22
2019-03-01T01:22:05.335Z,1008.19
2019-03-01T01:23:05.656Z,1008.19
2019-03-01T01:24:05.380Z,1008.15
2019-03-01T01:25:05.368Z,1008.14
2019-03-01T01:26:05.443Z,1008.11
2019-03-01T01:27:05.478Z,1008.10
2019-03-01T01:28:05.457Z,1008.09
2019-03-01T01:29:05.551Z,1008.13
2019-03-01T01:30:05.825Z,1008.11
2019-03-01T01:31:05.544Z,1008.12
2019-03-01T01:33:05.665Z,1008.06
2019-03-01T01:35:05.730Z,1008.04
2019-03-01T01:36:06.000Z,1008.04
2019-03-01T01:37:05.737Z,1008.03
2019-03-01T01:38:05.773Z,1008.04
2019-03-01T01:39:05.849Z,1008.03
2019-03-01T01:40:05.833Z,1008.04
2019-03-01T01:41:05.912Z,1008.00
2019-03-01T01:42:06.194Z,1008.02
2019-03-01T01:43:05.928Z,1007.99
2019-03-01T01:44:06.007Z,1007.95
2019-03-01T01:45:06.029Z,1007.97
2019-03-01T01:46:06.019Z,1007.94
2019-03-01T01:47:06.047Z,1007.96
2019-03-01T01:48:06.380Z,1007.88
2019-03-01T01:49:06.163Z,1007.89
2019-03-01T01:50:06.219Z,1007.91
2019-03-01T01:51:06.180Z,1007.84
2019-03-01T01:52:06.351Z,1007.85
2019-03-01T01:53:06.232Z,1007.85
2019-03-01T01:54:06.319Z,1007.86
2019-03-01T01:55:06.652Z,1007.81
2019-03-01T01:56:06.380Z,1007.81
2019-03-01T01:57:06.364Z,1007.81
2019-03-01T01:58:06.392Z,1007.80
2019-03-01T01:59:06.478Z,1007.82
2019-03-01T02:00:06.509Z,1007.80
2019-03-01T02:01:06.541Z,1007.75
2019-03-01T02:02:06.837Z,1007.74
2019-03-01T02:03:06.709Z,1007.77
2019-03-01T02:04:06.638Z,1007.76
2019-03-01T02:05:06.609Z,1007.73
2019-03-01T02:06:06.640Z,1007.69
2019-03-01T02:07:06.670Z,1007.71
2019-03-01T02:08:06.753Z,1007.73
2019-03-01T02:09:07.085Z,1007.71
2019-03-01T02:10:06.776Z,1007.72
2019-03-01T02:11:06.908Z,1007.72
2019-03-01T02:12:06.890Z,1007.75
2019-03-01T02:13:06.857Z,1007.70
2019-03-01T02:14:06.951Z,1007.69
2019-03-01T02:15:06.954Z,1007.71
2019-03-01T02:16:07.253Z,1007.71
2019-03-01T02:17:06.994Z,1007.70
2019-03-01T02:18:07.120Z,1007.69
2019-03-01T02:19:07.099Z,1007.72
2019-03-01T02:20:07.152Z,1007.67
2019-03-01T02:21:07.165Z,1007.67
2019-03-01T02:22:07.141Z,1007.63
2019-03-01T02:23:07.475Z,1007.66
2019-03-01T02:24:07.252Z,1007.62
2019-03-01T02:25:07.287Z,1007.58
2019-03-01T02:27:07.306Z,1007.52
2019-03-01T02:28:07.337Z,1007.59
2019-03-01T02:29:07.413Z,1007.57
2019-03-01T02:30:07.744Z,1007.57
2019-03-01T02:31:07.429Z,1007.55
2019-03-01T02:32:07.507Z,1007.53
2019-03-01T02:33:07.539Z,1007.50
2019-03-01T02:34:07.571Z,1007.48
2019-03-01T02:35:07.596Z,1007.47
2019-03-01T02:36:07.633Z,1007.46
2019-03-01T02:38:07.994Z,1007.43
2019-03-01T02:39:07.729Z,1007.43
2019-03-01T02:40:07.780Z,1007.41
2019-03-01T02:41:07.793Z,1007.41
2019-03-01T02:42:07.844Z,1007.43
2019-03-01T02:43:07.810Z,1007.40
2019-03-01T02:44:07.898Z,1007.42
2019-03-01T02:45:08.225Z,1007.39
2019-03-01T02:46:07.942Z,1007.40
2019-03-01T02:47:07.998Z,1007.37
2019-03-01T02:48:08.003Z,1007.37
2019-03-01T02:49:08.045Z,1007.39
2019-03-01T02:50:08.029Z,1007.34
2019-03-01T02:51:08.097Z,1007.32
2019-03-01T02:52:08.449Z,1007.34
2019-03-01T02:53:08.169Z,1007.34
2019-03-01T02:54:08.197Z,1007.32
2019-03-01T02:55:08.240Z,1007.29
2019-03-01T02:56:08.231Z,1007.29
2019-03-01T02:57:08.283Z,1007.30
2019-03-01T02:58:08.419Z,1007.32
2019-03-01T02:59:08.604Z,1007.26
2019-03-01T03:00:08.403Z,1007.29
2019-03-01T03:01:08.355Z,1007.28
2019-03-01T03:02:08.443Z,1007.23
2019-03-01T03:03:08.479Z,1007.24
2019-03-01T03:04:08.504Z,1007.22
2019-03-01T03:05:08.540Z,1007.20
2019-03-01T03:06:08.815Z,1007.18
2019-03-01T03:07:08.605Z,1007.21
2019-03-01T03:08:08.589Z,1007.16
2019-03-01T03:09:08.667Z,1007.18
2019-03-01T03:10:08.639Z,1007.21
2019-03-01T03:11:08.728Z,1007.16
2019-03-01T03:12:08.753Z,1007.13
2019-03-01T03:13:09.046Z,1007.15
2019-03-01T03:14:08.789Z,1007.16
2019-03-01T03:15:08.806Z,1007.16
2019-03-01T03:16:08.835Z,1007.15
2019-03-01T03:17:08.927Z,1007.18
2019-03-01T03:18:08.887Z,1007.12
2019-03-01T03:19:08.929Z,1007.15
2019-03-01T03:20:09.307Z,1007.12
2019-03-01T03:21:09.039Z,1007.19
2019-03-01T03:22:09.022Z,1007.13
2019-03-01T03:23:09.118Z,1007.12
2019-03-01T03:24:09.234Z,1007.16
2019-03-01T03:25:09.156Z,1007.13
2019-03-01T03:26:09.191Z,1007.18
2019-03-01T03:27:09.528Z,1007.17
2019-03-01T03:28:09.260Z,1007.18
2019-03-01T03:29:09.239Z,1007.15
2019-03-01T03:30:09.326Z,1007.13
2019-03-01T03:31:09.352Z,1007.13
2019-03-01T03:33:09.432Z,1007.13
2019-03-01T03:34:09.688Z,1007.13
2019-03-01T03:35:09.473Z,1007.11
2019-03-01T03:36:09.502Z,1007.16
2019-03-01T03:37:09.541Z,1007.13
2019-03-01T03:38:09.569Z,1007.13
2019-03-01T03:39:09.910Z,1007.12
2019-03-01T03:40:09.586Z,1007.15
2019-03-01T03:41:09.967Z,1007.10
2019-03-01T03:42:09.642Z,1007.10
2019-03-01T03:43:09.720Z,1007.09
2019-03-01T03:44:09.762Z,1007.12
2019-03-01T03:45:09.744Z,1007.06
2019-03-01T03:46:09.814Z,1007.08
2019-03-01T03:47:10.096Z,1007.10
2019-03-01T03:48:09.879Z,1007.11
2019-03-01T03:49:09.860Z,1007.10
2019-03-01T03:50:09.893Z,1007.08
2019-03-01T03:51:09.984Z,1007.08
2019-03-01T03:52:10.016Z,1007.05
2019-03-01T03:53:10.291Z,1007.07
2019-03-01T03:54:10.017Z,1007.06
2019-03-01T03:55:10.047Z,1007.07
2019-03-01T03:56:10.126Z,1007.08
2019-03-01T03:57:10.161Z,1007.07
2019-03-01T03:58:10.160Z,1007.03
2019-03-01T03:59:10.475Z,1007.03
2019-03-01T04:00:10.205Z,1007.06
2019-03-01T04:01:10.284Z,1007.05
2019-03-01T04:02:10.315Z,1007.04
2019-03-01T04:03:10.305Z,1007.02
2019-03-01T04:04:10.375Z,1007.02
2019-03-01T04:06:10.574Z,1007.00
2019-03-01T04:07:10.570Z,1007.02
2019-03-01T04:08:10.508Z,1007.02
2019-03-01T04:09:10.533Z,1006.99
2019-03-01T04:10:10.515Z,1006.99
2019-03-01T04:11:10.547Z,1007.01
2019-03-01T04:12:10.736Z,1007.01
2019-03-01T04:13:10.958Z,1007.01
2019-03-01T04:14:10.695Z,1007.06
2019-03-01T04:15:10.681Z,1007.03
2019-03-01T04:16:10.723Z,1007.06
2019-03-01T04:17:10.778Z,1007.02
2019-03-01T04:18:10.975Z,1007.03
2019-03-01T04:19:10.968Z,1007.06
2019-03-01T04:20:10.889Z,1007.04
2019-03-01T04:23:10.995Z,1007.06
2019-03-01T04:24:11.000Z,1007.07
2019-03-01T04:25:11.030Z,1007.00
2019-03-01T04:26:11.369Z,1007.03
2019-03-01T04:28:11.125Z,1006.99
2019-03-01T04:29:11.104Z,1007.04
2019-03-01T04:30:11.142Z,1007.05
2019-03-01T04:31:11.223Z,1007.03
2019-03-01T04:33:11.287Z,1007.01
2019-03-01T04:34:11.622Z,1007.03
2019-03-01T04:35:11.293Z,1007.03
2019-03-01T04:36:11.384Z,1007.06
2019-03-01T04:37:11.410Z,1007.00
2019-03-01T04:38:11.390Z,1007.00
2019-03-01T04:39:11.468Z,1006.97
2019-03-01T04:40:11.498Z,1007.00
2019-03-01T04:41:11.839Z,1006.99
2019-03-01T04:42:11.572Z,1006.95
2019-03-01T04:43:11.562Z,1006.96
2019-03-01T04:44:11.632Z,1006.98
2019-03-01T04:45:11.663Z,1006.93
2019-03-01T04:46:11.991Z,1006.94
2019-03-01T04:47:11.725Z,1006.97
2019-03-01T04:48:12.060Z,1006.97
2019-03-01T04:49:11.790Z,1006.98
2019-03-01T04:50:11.821Z,1006.99
2019-03-01T04:51:11.858Z,1006.98
2019-03-01T04:52:11.931Z,1006.98
2019-03-01T04:53:11.918Z,1006.99
2019-03-01T04:54:11.886Z,1006.96
2019-03-01T04:55:12.220Z,1006.94
2019-03-01T04:56:12.102Z,1006.99
2019-03-01T04:57:12.029Z,1006.97
2019-03-01T04:58:12.014Z,1006.93
2019-03-01T04:59:12.097Z,1006.93
2019-03-01T05:00:12.126Z,1006.91
2019-03-01T05:01:12.204Z,1006.89
2019-03-01T05:02:12.443Z,1006.92
2019-03-01T05:03:12.223Z,1006.92
2019-03-01T05:04:12.303Z,1006.92
2019-03-01T05:05:12.239Z,1006.92
2019-03-01T05:06:12.319Z,1006.89
2019-03-01T05:07:12.290Z,1006.93
2019-03-01T05:08:12.385Z,1006.86
2019-03-01T05:09:12.716Z,1006.91
2019-03-01T05:10:12.391Z,1006.88
2019-03-01T05:11:12.421Z,1006.88
2019-03-01T05:12:12.509Z,1006.91
2019-03-01T05:13:12.487Z,1006.85
2019-03-01T05:14:12.568Z,1006.91
2019-03-01T05:15:14.512Z,1006.91
2019-03-01T05:16:12.899Z,1006.90
2019-03-01T05:17:12.669Z,1006.93
2019-03-01T05:18:12.698Z,1006.93
2019-03-01T05:19:12.823Z,1006.93
2019-03-01T05:20:12.780Z,1006.95
2019-03-01T05:21:12.787Z,1006.92
2019-03-01T05:22:12.772Z,1006.96
2019-03-01T05:23:13.141Z,1006.96
2019-03-01T05:24:12.881Z,1006.96
2019-03-01T05:25:12.901Z,1006.96
2019-03-01T05:26:12.937Z,1006.98
2019-03-01T05:27:12.921Z,1006.96
2019-03-01T05:29:13.134Z,1006.96
2019-03-01T05:30:13.364Z,1006.94
2019-03-01T05:31:13.049Z,1006.96
2019-03-01T05:32:13.130Z,1006.99
2019-03-01T05:33:13.154Z,1006.99
2019-03-01T05:34:13.135Z,1007.04
2019-03-01T05:35:13.219Z,1006.98
2019-03-01T05:36:13.249Z,1007.02
2019-03-01T05:37:13.234Z,1007.03
2019-03-01T05:38:21.477Z,1007.02
2019-03-01T05:39:13.295Z,1007.08
2019-03-01T05:40:13.379Z,1007.11
2019-03-01T05:41:13.410Z,1007.15
2019-03-01T05:42:13.695Z,1007.17
2019-03-01T05:43:13.565Z,1007.16
2019-03-01T05:44:13.604Z,1007.17
2019-03-01T05:45:13.535Z,1007.17
2019-03-01T05:46:13.507Z,1007.19
2019-03-01T05:47:13.596Z,1007.22
2019-03-01T05:48:13.928Z,1007.21
2019-03-01T05:49:13.608Z,1007.19
2019-03-01T05:50:13.688Z,1007.23
2019-03-01T05:51:13.730Z,1007.17
2019-03-01T05:52:13.764Z,1007.22
2019-03-01T05:53:13.732Z,1007.24
2019-03-01T05:54:13.759Z,1007.25
2019-03-01T05:55:14.241Z,1007.28
2019-03-01T05:56:13.870Z,1007.30
2019-03-01T05:57:13.853Z,1007.30
2019-03-01T05:58:16.744Z,1007.35
2019-03-01T05:59:13.965Z,1007.31
2019-03-01T06:00:14.003Z,1007.31
2019-03-01T06:01:14.043Z,1007.31
2019-03-01T06:02:14.475Z,1007.27
2019-03-01T06:03:14.091Z,1007.31
2019-03-01T06:04:14.141Z,1007.29
2019-03-01T06:05:14.115Z,1007.28
2019-03-01T06:06:14.189Z,1007.35
2019-03-01T06:07:14.175Z,1007.34
2019-03-01T06:08:14.246Z,1007.36
2019-03-01T06:09:14.579Z,1007.37
2019-03-01T06:10:14.269Z,1007.38
2019-03-01T06:11:14.356Z,1007.35
2019-03-01T06:13:14.356Z,1007.36
2019-03-01T06:14:14.403Z,1007.33
2019-03-01T06:15:14.470Z,1007.35
2019-03-01T06:16:15.132Z,1007.32
2019-03-01T06:17:14.533Z,1007.32
2019-03-01T06:18:14.563Z,1007.36
2019-03-01T06:19:14.553Z,1007.34
2019-03-01T06:20:14.925Z,1007.36
2019-03-01T06:21:14.651Z,1007.37
2019-03-01T06:22:14.633Z,1007.41
2019-03-01T06:23:14.717Z,1007.34
2019-03-01T06:24:14.747Z,1007.37
2019-03-01T06:25:15.079Z,1007.35
2019-03-01T06:27:16.449Z,1007.43
2019-03-01T06:28:14.878Z,1007.37
2019-03-01T06:29:15.212Z,1007.42
2019-03-01T06:30:14.891Z,1007.41
2019-03-01T06:31:14.978Z,1007.41
2019-03-01T06:32:14.949Z,1007.43
2019-03-01T06:34:15.060Z,1007.40
2019-03-01T06:35:15.071Z,1007.45
2019-03-01T06:36:15.377Z,1007.43
2019-03-01T06:37:15.161Z,1007.46
2019-03-01T06:38:16.165Z,1007.46
2019-03-01T06:40:15.248Z,1007.49
2019-03-01T06:42:15.314Z,1007.50
2019-03-01T06:43:15.652Z,1007.49
2019-03-01T06:44:15.385Z,1007.51
2019-03-01T06:45:15.498Z,1007.53
2019-03-01T06:46:15.385Z,1007.55
2019-03-01T06:47:15.541Z,1007.55
2019-03-01T06:48:15.497Z,1007.58
2019-03-01T06:49:15.494Z,1007.63
2019-03-01T06:50:15.959Z,1007.64
2019-03-01T06:51:15.709Z,1007.61
2019-03-01T06:52:15.632Z,1007.66
2019-03-01T06:53:15.612Z,1007.71
2019-03-01T06:54:15.695Z,1007.71
2019-03-01T06:55:15.669Z,1007.69
2019-03-01T06:56:16.064Z,1007.73
2019-03-01T06:58:15.819Z,1007.74
2019-03-01T06:59:15.800Z,1007.72
2019-03-01T07:00:15.831Z,1007.76
2019-03-01T07:01:15.869Z,1007.75
2019-03-01T07:02:16.537Z,1007.75
2019-03-01T07:03:15.965Z,1007.78
2019-03-01T07:04:15.998Z,1007.77
2019-03-01T07:05:15.977Z,1007.79
2019-03-01T07:06:16.061Z,1007.78
2019-03-01T07:08:16.082Z,1007.81
2019-03-01T07:09:16.457Z,1007.80
2019-03-01T07:10:16.283Z,1007.80
2019-03-01T07:11:16.221Z,1007.82
2019-03-01T07:12:16.251Z,1007.81
2019-03-01T07:13:16.276Z,1007.85
2019-03-01T07:14:16.268Z,1007.88
2019-03-01T07:15:16.647Z,1007.85
2019-03-01T07:16:16.376Z,1007.83
2019-03-01T07:17:16.402Z,1007.91
2019-03-01T07:18:16.433Z,1007.85
2019-03-01T07:19:16.469Z,1007.88
2019-03-01T07:20:16.453Z,1007.90
2019-03-01T07:21:16.531Z,1007.93
2019-03-01T07:22:16.861Z,1007.93
2019-03-01T07:23:16.593Z,1007.88
2019-03-01T07:24:16.834Z,1007.88
2019-03-01T07:25:16.862Z,1007.92
2019-03-01T07:26:17.386Z,1007.93
2019-03-01T07:27:16.718Z,1007.95
2019-03-01T07:28:16.781Z,1007.93
2019-03-01T07:30:16.770Z,1007.95
2019-03-01T07:31:16.790Z,1007.97
2019-03-01T07:32:16.820Z,1007.98
2019-03-01T07:33:16.904Z,1008.03
2019-03-01T07:35:17.083Z,1008.03
2019-03-01T07:36:17.001Z,1008.04
2019-03-01T07:37:17.028Z,1008.03
2019-03-01T07:38:17.015Z,1008.09
2019-03-01T07:39:17.049Z,1008.08
2019-03-01T07:40:17.135Z,1008.12
2019-03-01T07:41:17.106Z,1008.13
2019-03-01T07:42:17.291Z,1008.13
2019-03-01T07:43:17.321Z,1008.19
2019-03-01T07:44:17.346Z,1008.14
2019-03-01T07:45:17.286Z,1008.19
2019-03-01T07:46:17.423Z,1008.19
2019-03-01T07:47:17.339Z,1008.16
2019-03-01T07:48:17.800Z,1008.24
2019-03-01T07:50:17.439Z,1008.24
2019-03-01T07:52:17.468Z,1008.24
2019-03-01T07:53:17.531Z,1008.28
2019-03-01T07:54:18.087Z,1008.32
2019-03-01T07:55:17.889Z,1008.34
2019-03-01T07:56:17.576Z,1008.35
2019-03-01T07:57:17.650Z,1008.37
2019-03-01T07:58:17.630Z,1008.43
2019-03-01T07:59:17.671Z,1008.48
2019-03-01T08:00:17.775Z,1008.46
2019-03-01T08:01:17.786Z,1008.48
2019-03-01T08:02:17.770Z,1008.52
2019-03-01T08:03:17.801Z,1008.52
2019-03-01T08:04:17.874Z,1008.57
2019-03-01T08:05:17.867Z,1008.58
2019-03-01T08:06:18.240Z,1008.58
2019-03-01T08:07:20.504Z,1008.59
2019-03-01T08:08:17.950Z,1008.61
2019-03-01T08:09:18.025Z,1008.60
2019-03-01T08:10:22.508Z,1008.61
2019-03-01T08:11:18.050Z,1008.65
2019-03-01T08:12:18.219Z,1008.66
2019-03-01T08:13:18.489Z,1008.64
2019-03-01T08:14:18.154Z,1008.69
2019-03-01T08:15:18.311Z,1008.66
2019-03-01T08:16:20.209Z,1008.68
2019-03-01T08:17:18.234Z,1008.70
2019-03-01T08:18:18.261Z,1008.70
2019-03-01T08:19:22.533Z,1008.69
2019-03-01T08:20:18.373Z,1008.67
2019-03-01T08:21:18.410Z,1008.69
2019-03-01T08:22:20.781Z,1008.68
2019-03-01T08:23:18.490Z,1008.71
2019-03-01T08:24:18.500Z,1008.75
2019-03-01T08:25:23.496Z,1008.74
2019-03-01T08:26:18.624Z,1008.76
2019-03-01T08:27:18.535Z,1008.75
2019-03-01T08:28:21.841Z,1008.79
2019-03-01T08:29:18.635Z,1008.78
2019-03-01T08:30:18.650Z,1008.81
2019-03-01T08:31:21.059Z,1008.83
2019-03-01T08:32:19.046Z,1008.84
2019-03-01T08:33:18.896Z,1008.89
2019-03-01T08:34:18.921Z,1008.89
2019-03-01T08:35:18.840Z,1008.91
2019-03-01T08:36:18.815Z,1008.95
2019-03-01T08:37:18.853Z,1008.94
2019-03-01T08:38:18.890Z,1009.01
2019-03-01T08:39:19.366Z,1008.99
2019-03-01T08:40:19.000Z,1009.01
2019-03-01T08:41:21.642Z,1009.03
2019-03-01T08:42:19.015Z,1009.06
2019-03-01T08:43:19.040Z,1009.05
2019-03-01T08:44:22.648Z,1009.12
2019-03-01T08:46:19.479Z,1009.11
2019-03-01T08:47:23.286Z,1009.11
2019-03-01T08:48:19.256Z,1009.16
2019-03-01T08:50:19.258Z,1009.20
2019-03-01T08:51:22.629Z,1009.19
2019-03-01T08:52:19.382Z,1009.23
2019-03-01T08:53:19.404Z,1009.25
2019-03-01T08:54:23.037Z,1009.24
2019-03-01T08:55:19.465Z,1009.22
2019-03-01T08:56:25.902Z,1009.22
2019-03-01T08:57:22.708Z,1009.24
2019-03-01T08:58:19.577Z,1009.27
2019-03-01T08:59:19.624Z,1009.26
2019-03-01T09:00:19.636Z,1009.29
2019-03-01T09:01:19.609Z,1009.26
2019-03-01T09:02:19.637Z,1009.23
2019-03-01T09:03:22.436Z,1009.27
2019-03-01T09:04:21.612Z,1009.25
2019-03-01T09:05:19.774Z,1009.32
2019-03-01T09:06:19.901Z,1009.34
2019-03-01T09:07:19.961Z,1009.38
2019-03-01T09:08:19.822Z,1009.43
2019-03-01T09:09:21.077Z,1009.46
2019-03-01T09:10:19.884Z,1009.47
2019-03-01T09:11:19.907Z,1009.51
2019-03-01T09:12:20.006Z,1009.54
2019-03-01T09:13:20.031Z,1009.51
2019-03-01T09:14:22.759Z,1009.54
2019-03-01T09:15:20.131Z,1009.56
2019-03-01T09:16:20.460Z,1009.58
2019-03-01T09:17:20.102Z,1009.63
2019-03-01T09:18:20.201Z,1009.58
2019-03-01T09:19:22.294Z,1009.65
2019-03-01T09:20:20.214Z,1009.64
2019-03-01T09:21:20.223Z,1009.65
2019-03-01T09:23:25.277Z,1009.64
2019-03-01T09:24:20.529Z,1009.64
2019-03-01T09:25:20.611Z,1009.71
2019-03-01T09:26:20.780Z,1009.75
2019-03-01T09:27:20.473Z,1009.76
2019-03-01T09:28:20.510Z,1009.78
2019-03-01T09:29:20.640Z,1009.76
2019-03-01T09:30:20.659Z,1009.79
2019-03-01T09:31:20.683Z,1009.80
2019-03-01T09:32:20.643Z,1009.82
2019-03-01T09:33:21.588Z,1009.85
2019-03-01T09:34:20.678Z,1009.87
2019-03-01T09:35:20.712Z,1009.88
2019-03-01T09:36:21.526Z,1009.88
2019-03-01T09:38:20.753Z,1009.89
2019-03-01T09:39:20.779Z,1009.89
2019-03-01T09:40:20.968Z,1009.92
2019-03-01T09:41:20.903Z,1009.94
2019-03-01T09:42:20.874Z,1009.98
2019-03-01T09:43:20.918Z,1009.98
2019-03-01T09:44:20.992Z,1009.99
2019-03-01T09:45:20.996Z,1010.01
2019-03-01T09:46:24.040Z,1010.01
2019-03-01T09:47:21.192Z,1010.01
2019-03-01T09:48:21.412Z,1010.02
2019-03-01T09:49:24.074Z,1010.08
2019-03-01T09:50:21.132Z,1010.09
2019-03-01T09:51:21.215Z,1010.08
2019-03-01T09:52:23.509Z,1010.10
2019-03-01T09:53:21.387Z,1010.10
2019-03-01T09:54:21.261Z,1010.12
2019-03-01T09:55:21.640Z,1010.12
2019-03-01T09:56:21.361Z,1010.14
2019-03-01T09:57:21.397Z,1010.17
2019-03-01T09:58:21.535Z,1010.18
2019-03-01T09:59:21.456Z,1010.23
2019-03-01T10:00:21.485Z,1010.25
2019-03-01T10:01:21.472Z,1010.27
2019-03-01T10:02:21.552Z,1010.29
2019-03-01T10:03:21.537Z,1010.31
2019-03-01T10:04:21.607Z,1010.30
2019-03-01T10:05:21.665Z,1010.32
2019-03-01T10:06:21.619Z,1010.33
2019-03-01T10:08:22.345Z,1010.31
2019-03-01T10:09:21.767Z,1010.33
2019-03-01T10:10:21.749Z,1010.37
2019-03-01T10:11:21.823Z,1010.36
2019-03-01T10:12:21.809Z,1010.38
2019-03-01T10:13:21.841Z,1010.40
2019-03-01T10:14:21.966Z,1010.42
2019-03-01T10:16:22.033Z,1010.47
2019-03-01T10:17:21.958Z,1010.50
2019-03-01T10:18:22.040Z,1010.51
2019-03-01T10:19:22.034Z,1010.52
2019-03-01T10:20:22.118Z,1010.52
2019-03-01T10:21:22.451Z,1010.57
2019-03-01T10:23:22.153Z,1010.57
2019-03-01T10:24:22.229Z,1010.56
2019-03-01T10:25:29.213Z,1010.57
2019-03-01T10:26:22.253Z,1010.56
2019-03-01T10:27:22.430Z,1010.56
2019-03-01T10:28:22.391Z,1010.54
2019-03-01T10:29:22.341Z,1010.57
2019-03-01T10:30:22.425Z,1010.63
2019-03-01T10:32:22.479Z,1010.63
2019-03-01T10:33:22.515Z,1010.62
2019-03-01T10:34:22.846Z,1010.58
2019-03-01T10:35:22.527Z,1010.62
2019-03-01T10:36:22.602Z,1010.62
2019-03-01T10:37:22.636Z,1010.63
2019-03-01T10:38:22.615Z,1010.67
2019-03-01T10:39:22.644Z,1010.64
2019-03-01T10:40:22.727Z,1010.67
2019-03-01T10:41:22.758Z,1010.65
2019-03-01T10:42:22.747Z,1010.75
2019-03-01T10:43:23.501Z,1010.75
2019-03-01T10:44:22.797Z,1010.74
2019-03-01T10:45:22.831Z,1010.73
2019-03-01T10:46:22.917Z,1010.78
2019-03-01T10:47:22.894Z,1010.80
2019-03-01T10:48:22.982Z,1010.82
2019-03-01T10:49:23.125Z,1010.83
2019-03-01T10:50:23.047Z,1010.83
2019-03-01T10:51:23.073Z,1010.82
2019-03-01T10:52:23.101Z,1010.85
2019-03-01T10:53:23.080Z,1010.86
2019-03-01T10:54:23.114Z,1010.88
2019-03-01T10:55:23.147Z,1010.90
2019-03-01T10:56:23.222Z,1010.89
2019-03-01T10:57:23.208Z,1010.92
2019-03-01T10:58:23.688Z,1010.96
2019-03-01T10:59:23.416Z,1010.96
2019-03-01T11:00:23.349Z,1010.98
2019-03-01T11:01:23.328Z,1010.98
2019-03-01T11:02:23.355Z,1011.03
2019-03-01T11:03:23.438Z,1011.01
2019-03-01T11:04:23.468Z,1011.02
2019-03-01T11:05:23.800Z,1010.98
2019-03-01T11:06:23.498Z,1011.03
2019-03-01T11:07:23.566Z,1011.03
2019-03-01T11:08:23.710Z,1011.02
2019-03-01T11:11:23.690Z,1011.03
2019-03-01T11:12:23.979Z,1011.07
2019-03-01T11:13:23.766Z,1011.06
2019-03-01T11:14:23.793Z,1011.04
2019-03-01T11:15:23.763Z,1011.04
2019-03-01T11:16:23.959Z,1011.03
2019-03-01T11:17:23.819Z,1011.01
2019-03-01T11:18:23.848Z,1011.01
2019-03-01T11:19:23.884Z,1011.05
2019-03-01T11:20:23.919Z,1011.08
2019-03-01T11:21:23.949Z,1011.05
2019-03-01T11:22:24.123Z,1011.09
2019-03-01T11:23:24.014Z,1011.10
2019-03-01T11:24:24.073Z,1011.10
2019-03-01T11:25:24.075Z,1011.10
2019-03-01T11:26:24.148Z,1011.12
2019-03-01T11:27:24.187Z,1011.13
2019-03-01T11:28:24.163Z,1011.10
2019-03-01T11:29:24.261Z,1011.08
2019-03-01T11:30:24.227Z,1011.13
2019-03-01T11:31:24.281Z,1011.11
2019-03-01T11:32:24.435Z,1011.10
2019-03-01T11:33:24.365Z,1011.11
2019-03-01T11:34:24.353Z,1011.09
2019-03-01T11:35:24.430Z,1011.15
2019-03-01T11:36:24.461Z,1011.16
2019-03-01T11:37:24.492Z,1011.17
2019-03-01T11:38:24.474Z,1011.16
2019-03-01T11:39:24.501Z,1011.18
2019-03-01T11:40:24.604Z,1011.18
2019-03-01T11:41:24.566Z,1011.21
2019-03-01T11:42:24.649Z,1011.16
2019-03-01T11:43:25.113Z,1011.11
2019-03-01T11:44:24.710Z,1011.16
2019-03-01T11:45:24.740Z,1011.19
2019-03-01T11:46:24.771Z,1011.18
2019-03-01T11:47:24.755Z,1011.14
2019-03-01T11:48:24.943Z,1011.18
2019-03-01T11:49:24.813Z,1011.21
2019-03-01T11:50:25.196Z,1011.17
2019-03-01T11:51:24.882Z,1011.21
2019-03-01T11:52:24.971Z,1011.20
2019-03-01T11:53:24.957Z,1011.20
2019-03-01T11:54:24.975Z,1011.23
2019-03-01T11:55:25.052Z,1011.22
2019-03-01T11:56:25.085Z,1011.23
2019-03-01T11:57:25.062Z,1011.25
2019-03-01T11:59:25.282Z,1011.26
2019-03-01T12:00:25.201Z,1011.26
2019-03-01T12:01:25.235Z,1011.27
2019-03-01T12:02:25.217Z,1011.31
2019-03-01T12:03:25.614Z,1011.31
2019-03-01T12:04:25.362Z,1011.30
2019-03-01T12:05:25.358Z,1011.30
2019-03-01T12:06:25.391Z,1011.28
2019-03-01T12:07:25.537Z,1011.30
2019-03-01T12:08:25.466Z,1011.27
2019-03-01T12:09:25.504Z,1011.28
2019-03-01T12:10:25.776Z,1011.30
2019-03-01T12:11:25.559Z,1011.31
2019-03-01T12:12:25.582Z,1011.32
2019-03-01T12:13:25.568Z,1011.31
2019-03-01T12:14:25.660Z,1011.31
2019-03-01T12:15:25.672Z,1011.32
2019-03-01T12:16:25.697Z,1011.32
2019-03-01T12:17:25.740Z,1011.39
2019-03-01T12:18:25.798Z,1011.38
2019-03-01T12:19:25.801Z,1011.37
2019-03-01T12:20:25.836Z,1011.39
2019-03-01T12:22:26.092Z,1011.38
2019-03-01T12:23:25.870Z,1011.38
2019-03-01T12:24:25.899Z,1011.38
2019-03-01T12:25:25.933Z,1011.40
2019-03-01T12:26:26.105Z,1011.41
2019-03-01T12:27:26.071Z,1011.42
2019-03-01T12:28:26.116Z,1011.40
2019-03-01T12:29:26.110Z,1011.37
2019-03-01T12:30:26.139Z,1011.43
2019-03-01T12:31:26.266Z,1011.44
2019-03-01T12:32:26.148Z,1011.41
2019-03-01T12:33:26.334Z,1011.39
2019-03-01T12:34:26.369Z,1011.41
2019-03-01T12:35:26.587Z,1011.40
2019-03-01T12:36:26.323Z,1011.41
2019-03-01T12:37:26.304Z,1011.40
2019-03-01T12:38:26.390Z,1011.38
2019-03-01T12:39:26.368Z,1011.41
2019-03-01T12:40:26.441Z,1011.42
2019-03-01T12:41:26.427Z,1011.43
2019-03-01T12:42:26.460Z,1011.45
2019-03-01T12:43:26.633Z,1011.47